createdAt,value
2022-08-11T00:00:04.900Z,3.40
2022-08-11T00:01:04.887Z,3.00
2022-08-11T00:02:04.870Z,3.20
2022-08-11T00:03:04.893Z,3.50
2022-08-11T00:04:04.838Z,3.40
2022-08-11T00:05:04.819Z,3.30
2022-08-11T00:06:04.808Z,3.20
2022-08-11T00:07:04.789Z,3.10
2022-08-11T00:08:04.776Z,3.10
2022-08-11T00:09:04.760Z,3.50
2022-08-11T00:10:04.743Z,3.20
2022-08-11T00:11:04.722Z,3.20
2022-08-11T00:12:04.710Z,3.10
2022-08-11T00:13:04.692Z,3.30
2022-08-11T00:14:04.684Z,3.20
2022-08-11T00:15:04.660Z,3.40
2022-08-11T00:16:04.647Z,3.10
2022-08-11T00:17:04.628Z,3.30
2022-08-11T00:18:04.614Z,3.30
2022-08-11T00:19:04.601Z,3.40
2022-08-11T00:20:12.973Z,3.10
2022-08-11T00:21:04.565Z,3.80
2022-08-11T00:22:06.278Z,3.00
2022-08-11T00:23:04.533Z,3.40
2022-08-11T00:24:04.517Z,2.80
2022-08-11T00:25:04.503Z,3.60
2022-08-11T00:26:04.488Z,3.40
2022-08-11T00:27:04.468Z,3.20
2022-08-11T00:28:04.455Z,3.00
2022-08-11T00:29:04.440Z,3.20
2022-08-11T00:30:04.440Z,3.40
2022-08-11T00:31:04.679Z,3.50
2022-08-11T00:32:04.390Z,3.20
2022-08-11T00:33:04.371Z,3.40
2022-08-11T00:34:04.359Z,3.40
2022-08-11T00:35:54.227Z,3.60
2022-08-11T00:36:04.323Z,3.70
2022-08-11T00:37:04.307Z,3.50
2022-08-11T00:38:04.297Z,3.60
2022-08-11T00:39:04.276Z,3.70
2022-08-11T00:40:04.383Z,3.20
2022-08-11T00:41:04.243Z,3.50
2022-08-11T00:42:04.229Z,3.60
2022-08-11T00:43:04.210Z,3.20
2022-08-11T00:44:04.196Z,3.40
2022-08-11T00:45:04.178Z,3.30
2022-08-11T00:46:04.163Z,3.60
2022-08-11T00:47:04.146Z,3.40
2022-08-11T00:48:04.131Z,3.30
2022-08-11T00:49:04.115Z,3.70
2022-08-11T00:50:04.101Z,3.80
2022-08-11T00:51:04.080Z,3.20
2022-08-11T00:52:06.227Z,3.40
2022-08-11T00:53:04.050Z,3.90
2022-08-11T00:54:04.037Z,3.60
2022-08-11T00:55:04.020Z,3.30
2022-08-11T00:56:04.015Z,3.50
2022-08-11T00:57:03.992Z,3.60
2022-08-11T00:58:03.973Z,3.60
2022-08-11T00:59:03.949Z,3.80
2022-08-11T01:00:03.997Z,3.80
2022-08-11T01:01:03.979Z,3.90
2022-08-11T01:02:03.903Z,3.80
2022-08-11T01:03:03.886Z,3.60
2022-08-11T01:04:03.873Z,3.50
2022-08-11T01:05:03.851Z,3.70
2022-08-11T01:06:03.840Z,3.30
2022-08-11T01:07:03.823Z,3.60
2022-08-11T01:08:03.806Z,3.30
2022-08-11T01:09:03.789Z,3.60
2022-08-11T01:10:07.143Z,3.70
2022-08-11T01:11:03.755Z,3.80
2022-08-11T01:12:03.741Z,3.50
2022-08-11T01:13:03.725Z,3.50
2022-08-11T01:14:03.708Z,3.30
2022-08-11T01:15:03.690Z,3.40
2022-08-11T01:16:03.677Z,3.30
2022-08-11T01:17:03.662Z,4.00
2022-08-11T01:18:03.642Z,3.60
2022-08-11T01:19:03.623Z,3.80
2022-08-11T01:20:45.207Z,3.60
2022-08-11T01:21:03.593Z,3.60
2022-08-11T01:22:03.578Z,3.80
2022-08-11T01:23:03.557Z,3.60
2022-08-11T01:24:03.543Z,3.90
2022-08-11T01:25:03.529Z,3.50
2022-08-11T01:26:03.512Z,3.70
2022-08-11T01:27:03.492Z,3.60
2022-08-11T01:28:03.480Z,3.50
2022-08-11T01:29:03.462Z,4.00
2022-08-11T01:30:03.448Z,3.80
2022-08-11T01:31:03.427Z,3.70
2022-08-11T01:32:03.414Z,3.30
2022-08-11T01:33:03.395Z,3.80
2022-08-11T01:34:03.381Z,3.60
2022-08-11T01:35:03.364Z,3.90
2022-08-11T01:36:03.345Z,3.50
2022-08-11T01:37:03.332Z,3.70
2022-08-11T01:38:03.316Z,3.30
2022-08-11T01:39:03.297Z,3.70
2022-08-11T01:40:03.282Z,3.70
2022-08-11T01:41:03.275Z,3.60
2022-08-11T01:42:03.250Z,3.70
2022-08-11T01:43:03.230Z,3.80
2022-08-11T01:44:03.218Z,3.80
2022-08-11T01:45:03.200Z,4.30
2022-08-11T01:46:03.185Z,3.90
2022-08-11T01:47:03.164Z,3.80
2022-08-11T01:48:03.151Z,3.70
2022-08-11T01:50:07.248Z,3.80
2022-08-11T01:50:08.683Z,3.70
2022-08-11T01:51:03.099Z,3.70
2022-08-11T01:52:03.084Z,3.70
2022-08-11T01:53:03.066Z,3.80
2022-08-11T01:54:03.053Z,3.90
2022-08-11T01:55:03.037Z,3.50
2022-08-11T01:56:03.016Z,3.90
2022-08-11T01:57:02.999Z,4.00
2022-08-11T01:58:02.987Z,3.90
2022-08-11T01:59:02.966Z,4.10
2022-08-11T02:00:02.951Z,3.80
2022-08-11T02:01:03.024Z,3.90
2022-08-11T02:02:02.923Z,3.80
2022-08-11T02:03:02.900Z,3.60
2022-08-11T02:04:02.882Z,3.80
2022-08-11T02:05:02.873Z,4.00
2022-08-11T02:06:02.857Z,3.70
2022-08-11T02:07:02.839Z,4.00
2022-08-11T02:08:02.819Z,3.90
2022-08-11T02:09:02.804Z,4.20
2022-08-11T02:10:02.783Z,4.10
2022-08-11T02:11:02.769Z,3.90
2022-08-11T02:12:02.751Z,3.70
2022-08-11T02:13:02.737Z,3.90
2022-08-11T02:14:02.718Z,3.80
2022-08-11T02:15:05.193Z,3.90
2022-08-11T02:16:02.684Z,3.90
2022-08-11T02:17:02.670Z,4.00
2022-08-11T02:18:02.655Z,3.90
2022-08-11T02:19:02.633Z,3.60
2022-08-11T02:20:02.617Z,3.90
2022-08-11T02:21:02.601Z,4.10
2022-08-11T02:22:02.585Z,3.60
2022-08-11T02:23:02.568Z,4.10
2022-08-11T02:24:05.344Z,4.00
2022-08-11T02:25:02.544Z,3.80
2022-08-11T02:26:02.518Z,3.80
2022-08-11T02:27:02.501Z,3.80
2022-08-11T02:28:02.483Z,3.70
2022-08-11T02:29:02.471Z,3.80
2022-08-11T02:30:02.452Z,3.70
2022-08-11T02:31:02.436Z,3.90
2022-08-11T02:32:14.226Z,3.90
2022-08-11T02:33:02.410Z,4.10
2022-08-11T02:34:02.384Z,4.10
2022-08-11T02:35:02.371Z,3.90
2022-08-11T02:36:02.350Z,4.10
2022-08-11T02:37:02.337Z,4.30
2022-08-11T02:38:02.317Z,4.00
2022-08-11T02:39:02.300Z,4.30
2022-08-11T02:40:02.283Z,3.90
2022-08-11T02:41:02.272Z,4.00
2022-08-11T02:42:02.249Z,3.90
2022-08-11T02:43:02.239Z,3.70
2022-08-11T02:44:02.217Z,4.50
2022-08-11T02:45:02.198Z,4.40
2022-08-11T02:46:02.183Z,4.30
2022-08-11T02:47:02.169Z,4.20
2022-08-11T02:48:02.147Z,4.00
2022-08-11T02:49:02.134Z,4.20
2022-08-11T02:50:07.389Z,3.90
2022-08-11T02:51:02.099Z,3.90
2022-08-11T02:52:02.082Z,4.00
2022-08-11T02:53:02.066Z,4.00
2022-08-11T02:54:02.048Z,4.00
2022-08-11T02:55:02.033Z,4.20
2022-08-11T02:56:02.012Z,4.00
2022-08-11T02:57:01.998Z,4.50
2022-08-11T02:58:01.980Z,4.20
2022-08-11T02:59:01.965Z,4.00
2022-08-11T03:00:01.948Z,4.10
2022-08-11T03:01:01.934Z,4.90
2022-08-11T03:02:05.271Z,3.90
2022-08-11T03:03:01.897Z,4.30
2022-08-11T03:04:01.877Z,4.40
2022-08-11T03:05:01.864Z,4.20
2022-08-11T03:06:01.847Z,4.20
2022-08-11T03:07:01.828Z,4.40
2022-08-11T03:08:01.810Z,4.20
2022-08-11T03:09:01.797Z,4.50
2022-08-11T03:10:01.777Z,4.00
2022-08-11T03:11:01.765Z,4.30
2022-08-11T03:12:01.744Z,4.90
2022-08-11T03:13:01.730Z,4.80
2022-08-11T03:14:01.711Z,4.30
2022-08-11T03:15:01.699Z,4.40
2022-08-11T03:16:01.678Z,4.50
2022-08-11T03:17:01.660Z,4.70
2022-08-11T03:18:01.642Z,4.10
2022-08-11T03:19:01.627Z,4.20
2022-08-11T03:20:01.608Z,4.30
2022-08-11T03:21:01.593Z,4.20
2022-08-11T03:22:03.432Z,4.10
2022-08-11T03:23:01.561Z,4.10
2022-08-11T03:24:01.546Z,4.00
2022-08-11T03:25:01.529Z,4.20
2022-08-11T03:26:01.511Z,4.40
2022-08-11T03:27:01.494Z,4.20
2022-08-11T03:28:02.678Z,4.30
2022-08-11T03:29:01.456Z,4.90
2022-08-11T03:30:01.438Z,4.50
2022-08-11T03:31:01.421Z,4.20
2022-08-11T03:32:01.407Z,4.40
2022-08-11T03:33:01.590Z,4.30
2022-08-11T03:34:05.680Z,4.30
2022-08-11T03:35:01.383Z,4.70
2022-08-11T03:36:01.336Z,5.70
2022-08-11T03:37:16.326Z,4.70
2022-08-11T03:38:01.302Z,4.80
2022-08-11T03:39:01.287Z,4.90
2022-08-11T03:40:01.361Z,4.60
2022-08-11T03:42:05.914Z,4.30
2022-08-11T03:43:01.218Z,4.50
2022-08-11T03:44:01.204Z,4.50
2022-08-11T03:45:01.210Z,4.70
2022-08-11T03:46:01.199Z,4.00
2022-08-11T03:47:01.150Z,4.40
2022-08-11T03:48:01.169Z,4.60
2022-08-11T03:50:01.097Z,4.50
2022-08-11T03:51:01.115Z,4.20
2022-08-11T03:52:01.068Z,4.50
2022-08-11T03:54:01.031Z,4.80
2022-08-11T03:55:01.062Z,4.90
2022-08-11T03:56:01.027Z,4.90
2022-08-11T03:57:01.211Z,5.00
2022-08-11T03:58:00.992Z,4.80
2022-08-11T03:59:00.946Z,4.90
2022-08-11T04:00:01.536Z,5.30
2022-08-11T04:01:00.938Z,4.80
2022-08-11T04:02:00.971Z,4.80
2022-08-11T04:03:01.078Z,5.20
2022-08-11T04:06:00.857Z,4.50
2022-08-11T04:07:00.837Z,4.50
2022-08-11T04:08:00.826Z,4.90
2022-08-11T04:09:00.803Z,4.50
2022-08-11T04:10:00.786Z,4.60
2022-08-11T04:11:00.764Z,4.20
2022-08-11T04:13:00.732Z,4.50
2022-08-11T04:14:00.690Z,4.50
2022-08-11T04:15:00.671Z,4.70
2022-08-11T04:16:00.655Z,4.30
2022-08-11T04:17:00.638Z,4.40
2022-08-11T04:18:00.618Z,4.20
2022-08-11T04:19:00.610Z,4.80
2022-08-11T04:20:00.585Z,4.50
2022-08-11T04:21:00.597Z,4.80
2022-08-11T04:22:00.756Z,4.30
2022-08-11T04:24:36.903Z,4.60
2022-08-11T04:25:00.500Z,4.50
2022-08-11T04:26:00.484Z,4.60
2022-08-11T04:27:01.801Z,4.50
2022-08-11T04:28:00.450Z,4.00
2022-08-11T04:29:00.431Z,4.90
2022-08-11T04:30:03.223Z,4.50
2022-08-11T04:31:00.397Z,4.70
2022-08-11T04:32:00.380Z,4.60
2022-08-11T04:33:00.361Z,4.50
2022-08-11T04:34:00.348Z,4.40
2022-08-11T04:35:00.326Z,4.90
2022-08-11T04:36:00.353Z,4.70
2022-08-11T04:37:00.349Z,4.40
2022-08-11T04:38:00.278Z,4.40
2022-08-11T04:39:00.255Z,5.10
2022-08-11T04:40:00.243Z,4.70
2022-08-11T04:41:00.277Z,4.40
2022-08-11T04:42:00.209Z,4.40
2022-08-11T04:43:00.188Z,4.60
2022-08-11T04:44:06.027Z,4.80
2022-08-11T04:45:00.158Z,4.00
2022-08-11T04:46:00.139Z,4.80
2022-08-11T04:47:00.120Z,4.70
2022-08-11T04:48:01.869Z,4.10
2022-08-11T04:49:00.091Z,4.40
2022-08-11T04:50:00.074Z,4.60
2022-08-11T04:51:08.692Z,4.20
2022-08-11T04:52:00.039Z,4.40
2022-08-11T04:53:00.018Z,4.20
2022-08-11T04:54:00.008Z,4.50
2022-08-11T04:54:59.981Z,4.40
2022-08-11T04:55:59.965Z,4.50
2022-08-11T04:56:59.948Z,4.20
2022-08-11T04:57:59.936Z,4.10
2022-08-11T04:58:59.912Z,4.30
2022-08-11T04:59:59.899Z,4.40
2022-08-11T05:00:59.880Z,4.70
2022-08-11T05:01:59.952Z,4.70
2022-08-11T05:02:59.844Z,4.80
2022-08-11T05:03:59.831Z,4.40
2022-08-11T05:04:59.814Z,4.10
2022-08-11T05:05:59.797Z,4.20
2022-08-11T05:06:59.780Z,4.40
2022-08-11T05:07:59.759Z,4.50
2022-08-11T05:08:59.740Z,4.20
2022-08-11T05:09:59.728Z,4.40
2022-08-11T05:10:59.706Z,4.70
2022-08-11T05:12:01.705Z,4.30
2022-08-11T05:12:59.671Z,4.30
2022-08-11T05:13:59.657Z,4.50
2022-08-11T05:14:59.636Z,4.40
2022-08-11T05:15:59.623Z,4.50
2022-08-11T05:16:59.606Z,4.80
2022-08-11T05:17:59.589Z,4.30
2022-08-11T05:18:59.568Z,4.30
2022-08-11T05:19:59.553Z,4.60
2022-08-11T05:21:04.341Z,4.40
2022-08-11T05:21:59.518Z,4.40
2022-08-11T05:22:59.501Z,4.30
2022-08-11T05:23:59.485Z,4.50
2022-08-11T05:24:59.466Z,5.10
2022-08-11T05:26:44.141Z,4.70
2022-08-11T05:26:59.431Z,4.70
2022-08-11T05:27:59.417Z,4.70
2022-08-11T05:28:59.396Z,4.80
2022-08-11T05:29:59.381Z,4.70
2022-08-11T05:30:59.363Z,4.80
2022-08-11T05:31:59.347Z,4.70
2022-08-11T05:33:01.970Z,4.50
2022-08-11T05:33:59.313Z,4.40
2022-08-11T05:34:59.292Z,5.50
2022-08-11T05:36:01.747Z,5.00
2022-08-11T05:37:23.760Z,4.50
2022-08-11T05:37:59.246Z,4.90
2022-08-11T05:38:59.224Z,4.70
2022-08-11T05:39:59.297Z,4.90
2022-08-11T05:41:00.070Z,5.10
2022-08-11T05:41:59.173Z,4.90
2022-08-11T05:42:59.156Z,5.10
2022-08-11T05:44:20.147Z,4.60
2022-08-11T05:44:59.122Z,4.50
2022-08-11T05:46:04.526Z,4.90
2022-08-11T05:46:59.087Z,4.60
2022-08-11T05:47:59.072Z,4.60
2022-08-11T05:48:59.053Z,5.00
2022-08-11T05:49:59.037Z,4.80
2022-08-11T05:50:59.021Z,4.30
2022-08-11T05:52:04.889Z,4.10
2022-08-11T05:52:58.984Z,4.70
2022-08-11T05:53:58.967Z,4.80
2022-08-11T05:54:58.952Z,4.80
2022-08-11T05:56:03.061Z,4.80
2022-08-11T05:56:59.068Z,4.30
2022-08-11T05:57:58.900Z,4.00
2022-08-11T05:58:58.883Z,4.40
2022-08-11T05:59:58.865Z,4.30
2022-08-11T06:00:58.848Z,3.90
2022-08-11T06:01:58.874Z,4.50
2022-08-11T06:02:58.813Z,4.30
2022-08-11T06:03:59.006Z,4.40
2022-08-11T06:04:58.785Z,4.40
2022-08-11T06:05:58.763Z,4.50
2022-08-11T06:06:58.746Z,4.30
2022-08-11T06:07:58.728Z,3.70
2022-08-11T06:08:58.713Z,4.00
2022-08-11T06:09:58.697Z,3.90
2022-08-11T06:10:58.676Z,4.10
2022-08-11T06:11:58.662Z,3.90
2022-08-11T06:12:58.643Z,3.90
2022-08-11T06:13:58.626Z,4.60
2022-08-11T06:14:58.610Z,4.20
2022-08-11T06:15:58.593Z,3.90
2022-08-11T06:16:58.576Z,4.00
2022-08-11T06:17:58.560Z,4.00
2022-08-11T06:18:58.541Z,3.80
2022-08-11T06:20:05.542Z,4.40
2022-08-11T06:20:58.507Z,3.90
2022-08-11T06:21:58.493Z,3.60
2022-08-11T06:22:58.477Z,3.90
2022-08-11T06:23:58.455Z,3.90
2022-08-11T06:24:58.441Z,4.10
2022-08-11T06:25:58.423Z,4.00
2022-08-11T06:27:14.074Z,3.80
2022-08-11T06:27:58.388Z,3.60
2022-08-11T06:28:58.374Z,4.20
2022-08-11T06:29:58.356Z,3.40
2022-08-11T06:30:58.342Z,3.90
2022-08-11T06:31:58.323Z,3.80
2022-08-11T06:32:58.306Z,3.80
2022-08-11T06:33:58.288Z,3.90
2022-08-11T06:34:58.271Z,3.90
2022-08-11T06:35:58.254Z,3.90
2022-08-11T06:36:58.249Z,3.90
2022-08-11T06:37:58.823Z,3.60
2022-08-11T06:38:58.205Z,3.90
2022-08-11T06:39:58.222Z,4.10
2022-08-11T06:40:58.174Z,4.10
2022-08-11T06:41:58.156Z,3.50
2022-08-11T06:42:58.140Z,3.40
2022-08-11T06:44:02.003Z,4.10
2022-08-11T06:44:58.104Z,3.80
2022-08-11T06:45:58.087Z,4.10
2022-08-11T06:46:58.074Z,3.70
2022-08-11T06:47:58.053Z,4.30
2022-08-11T06:48:58.044Z,4.30
2022-08-11T06:49:58.019Z,3.80
2022-08-11T06:50:58.007Z,3.90
2022-08-11T06:52:00.741Z,4.00
2022-08-11T06:52:57.974Z,3.90
2022-08-11T06:54:04.327Z,4.00
2022-08-11T06:54:57.939Z,4.10
2022-08-11T06:55:59.036Z,3.90
2022-08-11T06:57:26.262Z,3.70
2022-08-11T06:57:57.888Z,3.70
2022-08-11T06:58:57.873Z,3.70
2022-08-11T06:59:57.854Z,3.70
2022-08-11T07:00:57.852Z,3.90
2022-08-11T07:01:57.872Z,3.50
2022-08-11T07:02:57.807Z,3.60
2022-08-11T07:03:57.788Z,3.90
2022-08-11T07:04:57.776Z,3.70
2022-08-11T07:05:57.756Z,3.30
2022-08-11T07:06:57.741Z,3.20
2022-08-11T07:07:57.721Z,3.30
2022-08-11T07:08:57.710Z,3.10
2022-08-11T07:09:57.689Z,3.40
2022-08-11T07:10:57.674Z,2.80
2022-08-11T07:11:57.657Z,3.10
2022-08-11T07:12:57.643Z,3.40
2022-08-11T07:13:57.625Z,2.70
2022-08-11T07:15:00.213Z,3.10
2022-08-11T07:16:12.619Z,3.00
2022-08-11T07:16:57.576Z,2.80
2022-08-11T07:17:57.558Z,3.00
2022-08-11T07:18:57.543Z,3.00
2022-08-11T07:19:57.524Z,2.80
2022-08-11T07:21:01.885Z,2.70
2022-08-11T07:22:02.565Z,2.70
2022-08-11T07:22:57.479Z,2.70
2022-08-11T07:23:57.461Z,2.90
2022-08-11T07:24:59.655Z,3.00
2022-08-11T07:25:57.434Z,2.90
2022-08-11T07:26:57.414Z,2.60
2022-08-11T07:27:57.395Z,2.70
2022-08-11T07:28:57.382Z,3.40
2022-08-11T07:29:57.365Z,2.60
2022-08-11T07:30:57.349Z,2.70
2022-08-11T07:31:57.332Z,2.40
2022-08-11T07:32:57.317Z,2.60
2022-08-11T07:34:08.409Z,2.40
2022-08-11T07:34:57.290Z,2.50
2022-08-11T07:35:57.268Z,2.50
2022-08-11T07:36:57.253Z,2.50
2022-08-11T07:38:01.707Z,2.20
2022-08-11T07:38:57.219Z,2.50
2022-08-11T07:39:57.323Z,2.30
2022-08-11T07:40:57.185Z,2.20
2022-08-11T07:41:57.304Z,2.50
2022-08-11T07:42:57.155Z,2.60
2022-08-11T07:43:57.146Z,2.40
2022-08-11T07:44:57.132Z,2.50
2022-08-11T07:45:57.103Z,2.50
2022-08-11T07:46:57.090Z,2.20
2022-08-11T07:47:57.070Z,2.40
2022-08-11T07:48:57.061Z,2.20
2022-08-11T07:49:57.039Z,2.80
2022-08-11T07:50:57.024Z,2.40
2022-08-11T07:51:57.011Z,2.50
2022-08-11T07:52:56.994Z,2.60
2022-08-11T07:54:15.384Z,2.80
2022-08-11T07:54:56.963Z,2.60
2022-08-11T07:55:56.944Z,2.50
2022-08-11T07:57:09.332Z,2.60
2022-08-11T07:58:15.324Z,2.80
2022-08-11T07:59:04.286Z,2.50
2022-08-11T08:00:04.232Z,2.50
2022-08-11T08:01:01.291Z,2.70
2022-08-11T08:01:56.895Z,2.60
2022-08-11T08:02:56.835Z,2.70
2022-08-11T08:03:56.819Z,2.60
2022-08-11T08:04:56.803Z,2.80
2022-08-11T08:05:56.785Z,2.60
2022-08-11T08:06:56.769Z,2.90
2022-08-11T08:07:56.754Z,2.40
2022-08-11T08:08:56.740Z,2.60
2022-08-11T08:09:56.725Z,2.70
2022-08-11T08:10:56.710Z,2.20
2022-08-11T08:11:56.689Z,2.50
2022-08-11T08:12:56.680Z,2.40
2022-08-11T08:13:56.660Z,2.40
2022-08-11T08:14:56.667Z,2.80
2022-08-11T08:15:56.627Z,2.70
2022-08-11T08:16:56.617Z,2.60
2022-08-11T08:18:20.976Z,2.50
2022-08-11T08:18:56.586Z,2.70
2022-08-11T08:19:56.565Z,2.80
2022-08-11T08:20:56.554Z,2.70
2022-08-11T08:22:05.071Z,2.60
2022-08-11T08:22:56.519Z,2.80
2022-08-11T08:23:56.694Z,2.50
2022-08-11T08:24:56.490Z,2.70
2022-08-11T08:25:56.471Z,2.50
2022-08-11T08:26:56.455Z,2.50
2022-08-11T08:27:56.443Z,2.30
2022-08-11T08:28:56.424Z,2.50
2022-08-11T08:29:56.409Z,3.00
2022-08-11T08:30:56.392Z,2.60
2022-08-11T08:31:56.378Z,2.40
2022-08-11T08:32:56.363Z,2.50
2022-08-11T08:33:56.347Z,2.50
2022-08-11T08:34:56.329Z,2.60
2022-08-11T08:35:56.360Z,2.70
2022-08-11T08:36:56.300Z,2.80
2022-08-11T08:37:56.283Z,2.40
2022-08-11T08:38:56.270Z,2.40
2022-08-11T08:39:56.322Z,2.30
2022-08-11T08:40:56.797Z,2.60
2022-08-11T08:41:56.224Z,2.70
2022-08-11T08:42:56.206Z,2.70
2022-08-11T08:43:59.876Z,2.70
2022-08-11T08:44:56.177Z,3.00
2022-08-11T08:45:56.160Z,2.70
2022-08-11T08:46:56.146Z,2.80
2022-08-11T08:47:56.129Z,2.80
2022-08-11T08:48:56.114Z,2.70
2022-08-11T08:49:56.100Z,2.80
2022-08-11T08:50:56.084Z,2.80
2022-08-11T08:52:02.005Z,2.60
2022-08-11T08:52:56.056Z,2.80
2022-08-11T08:53:56.610Z,2.70
2022-08-11T08:54:56.025Z,2.60
2022-08-11T08:55:56.007Z,2.80
2022-08-11T08:56:55.992Z,2.80
2022-08-11T08:57:55.978Z,2.70
2022-08-11T08:58:55.962Z,2.50
2022-08-11T08:59:55.945Z,2.90
2022-08-11T09:00:55.982Z,2.30
2022-08-11T09:01:55.917Z,3.00
2022-08-11T09:02:55.902Z,2.90
2022-08-11T09:04:06.752Z,2.80
2022-08-11T09:04:55.876Z,2.80
2022-08-11T09:05:55.858Z,3.10
2022-08-11T09:06:55.922Z,2.80
2022-08-11T09:07:55.826Z,2.90
2022-08-11T09:08:55.811Z,2.80
2022-08-11T09:09:55.795Z,2.80
2022-08-11T09:10:55.783Z,2.70
2022-08-11T09:11:55.765Z,2.70
2022-08-11T09:12:55.753Z,2.70
2022-08-11T09:14:05.563Z,3.00
2022-08-11T09:14:55.722Z,2.70
2022-08-11T09:15:56.469Z,3.00
2022-08-11T09:16:55.691Z,2.80
2022-08-11T09:17:55.678Z,2.90
2022-08-11T09:18:55.661Z,2.70
2022-08-11T09:19:56.650Z,3.00
2022-08-11T09:20:55.631Z,3.00
2022-08-11T09:21:55.616Z,3.30
2022-08-11T09:23:29.629Z,2.50
2022-08-11T09:24:07.456Z,2.80
2022-08-11T09:24:55.576Z,2.70
2022-08-11T09:25:55.556Z,2.70
2022-08-11T09:26:55.543Z,3.00
2022-08-11T09:27:55.526Z,2.90
2022-08-11T09:28:55.513Z,2.90
2022-08-11T09:29:55.510Z,2.70
2022-08-11T09:30:55.484Z,2.80
2022-08-11T09:31:55.467Z,2.70
2022-08-11T09:32:55.453Z,3.20
2022-08-11T09:33:55.512Z,2.60
2022-08-11T09:34:55.424Z,3.20
2022-08-11T09:35:55.408Z,3.00
2022-08-11T09:36:55.394Z,3.10
2022-08-11T09:37:56.600Z,2.80
2022-08-11T09:38:55.363Z,3.00
2022-08-11T09:39:55.430Z,3.00
2022-08-11T09:40:56.995Z,2.70
2022-08-11T09:42:00.441Z,3.00
2022-08-11T09:42:55.305Z,3.00
2022-08-11T09:43:55.290Z,3.20
2022-08-11T09:44:55.279Z,2.90
2022-08-11T09:45:55.265Z,4.10
2022-08-11T09:46:55.249Z,3.40
2022-08-11T09:47:55.231Z,3.10
2022-08-11T09:48:55.218Z,3.20
2022-08-11T09:49:55.206Z,2.90
2022-08-11T09:50:55.191Z,3.20
2022-08-11T09:52:04.843Z,3.10
2022-08-11T09:53:35.058Z,3.50
2022-08-11T09:54:03.713Z,3.30
2022-08-11T09:54:55.131Z,3.10
2022-08-11T09:55:55.117Z,3.40
2022-08-11T09:56:55.104Z,3.10
2022-08-11T09:57:55.243Z,3.20
2022-08-11T09:58:55.077Z,3.20
2022-08-11T10:00:12.479Z,3.20
2022-08-11T10:00:55.112Z,3.50
2022-08-11T10:01:55.034Z,3.00
2022-08-11T10:02:55.016Z,2.80
2022-08-11T10:03:55.002Z,3.20
2022-08-11T10:04:54.990Z,3.00
2022-08-11T10:05:54.975Z,2.60
2022-08-11T10:06:55.418Z,3.10
2022-08-11T10:07:54.951Z,3.20
2022-08-11T10:08:54.935Z,3.00
2022-08-11T10:09:54.922Z,3.30
2022-08-11T10:10:54.909Z,2.80
2022-08-11T10:11:55.508Z,3.00
2022-08-11T10:12:54.879Z,3.00
2022-08-11T10:14:31.532Z,2.90
2022-08-11T10:14:54.853Z,2.90
2022-08-11T10:16:00.107Z,2.60
2022-08-11T10:16:54.825Z,2.90
2022-08-11T10:17:54.811Z,2.60
2022-08-11T10:18:54.799Z,2.50
2022-08-11T10:20:04.281Z,2.90
2022-08-11T10:20:54.773Z,3.00
2022-08-11T10:21:54.757Z,3.00
2022-08-11T10:22:54.747Z,3.10
2022-08-11T10:24:00.949Z,2.80
2022-08-11T10:24:54.724Z,2.90
2022-08-11T10:25:54.711Z,2.60
2022-08-11T10:26:55.031Z,2.60
2022-08-11T10:28:17.786Z,2.50
2022-08-11T10:29:11.920Z,2.50
2022-08-11T10:29:54.656Z,2.80
2022-08-11T10:30:54.642Z,2.80
2022-08-11T10:31:57.953Z,2.70
2022-08-11T10:32:58.647Z,2.50
2022-08-11T10:33:59.013Z,3.00
2022-08-11T10:34:57.898Z,2.80
2022-08-11T10:35:54.578Z,2.50
2022-08-11T10:36:54.567Z,2.70
2022-08-11T10:38:08.522Z,2.50
2022-08-11T10:38:54.539Z,2.60
2022-08-11T10:39:54.602Z,2.60
2022-08-11T10:40:54.515Z,2.60
2022-08-11T10:42:06.070Z,2.40
2022-08-11T10:42:58.212Z,2.60
2022-08-11T10:44:02.716Z,2.70
2022-08-11T10:44:54.463Z,2.70
2022-08-11T10:45:54.453Z,2.70
2022-08-11T10:46:54.439Z,2.40
2022-08-11T10:47:54.431Z,2.70
2022-08-11T10:48:54.414Z,2.60
2022-08-11T10:49:54.404Z,2.20
2022-08-11T10:50:54.389Z,2.40
2022-08-11T10:51:54.380Z,2.40
2022-08-11T10:52:54.366Z,2.50
2022-08-11T10:53:54.356Z,2.30
2022-08-11T10:54:54.339Z,2.70
2022-08-11T10:55:54.338Z,2.20
2022-08-11T10:56:54.318Z,2.30
2022-08-11T10:58:04.910Z,2.40
2022-08-11T10:58:54.297Z,2.50
2022-08-11T10:59:54.285Z,2.40
2022-08-11T11:00:54.289Z,2.40
2022-08-11T11:01:54.261Z,2.40
2022-08-11T11:03:23.160Z,2.50
2022-08-11T11:03:54.239Z,2.40
2022-08-11T11:04:54.221Z,2.50
2022-08-11T11:06:27.566Z,2.80
2022-08-11T11:06:54.282Z,2.60
2022-08-11T11:07:54.188Z,2.50
2022-08-11T11:08:57.561Z,3.00
2022-08-11T11:09:54.166Z,2.60
2022-08-11T11:10:54.149Z,2.40
2022-08-11T11:11:54.143Z,2.90
2022-08-11T11:12:54.127Z,2.70
2022-08-11T11:13:55.503Z,2.50
2022-08-11T11:14:58.802Z,2.50
2022-08-11T11:15:54.093Z,2.40
2022-08-11T11:16:54.081Z,2.50
2022-08-11T11:17:54.072Z,2.30
2022-08-11T11:19:00.974Z,2.50
2022-08-11T11:19:54.045Z,2.60
2022-08-11T11:20:54.038Z,2.50
2022-08-11T11:21:54.023Z,2.50
2022-08-11T11:22:54.010Z,2.50
2022-08-11T11:23:54.002Z,2.40
2022-08-11T11:24:53.988Z,2.60
2022-08-11T11:25:57.137Z,2.50
2022-08-11T11:26:53.963Z,2.70
2022-08-11T11:27:53.953Z,2.60
2022-08-11T11:28:53.940Z,2.80
2022-08-11T11:29:53.929Z,2.30
2022-08-11T11:30:53.914Z,2.70
2022-08-11T11:31:53.907Z,2.70
2022-08-11T11:32:53.891Z,2.70
2022-08-11T11:34:06.819Z,2.70
2022-08-11T11:34:54.064Z,2.60
2022-08-11T11:35:53.856Z,2.50
2022-08-11T11:36:53.845Z,2.50
2022-08-11T11:38:00.949Z,2.80
2022-08-11T11:38:53.821Z,2.70
2022-08-11T11:39:53.917Z,2.50
2022-08-11T11:40:53.795Z,2.60
2022-08-11T11:41:53.788Z,3.00
2022-08-11T11:42:53.779Z,2.60
2022-08-11T11:43:53.764Z,2.60
2022-08-11T11:44:55.973Z,2.50
2022-08-11T11:45:53.740Z,2.70
2022-08-11T11:46:53.724Z,2.60
2022-08-11T11:47:53.991Z,2.70
2022-08-11T11:48:53.709Z,2.70
2022-08-11T11:49:53.708Z,3.00
2022-08-11T11:50:56.802Z,2.60
2022-08-11T11:51:53.667Z,2.70
2022-08-11T11:52:53.699Z,2.70
2022-08-11T11:53:53.640Z,2.70
2022-08-11T11:54:53.632Z,2.40
2022-08-11T11:55:53.621Z,2.70
2022-08-11T11:56:53.605Z,2.70
2022-08-11T11:57:58.410Z,2.70
2022-08-11T11:58:53.578Z,3.00
2022-08-11T11:59:53.579Z,2.50
2022-08-11T12:00:53.563Z,2.50
2022-08-11T12:01:53.544Z,2.50
2022-08-11T12:02:53.551Z,2.70
2022-08-11T12:03:53.521Z,2.80
2022-08-11T12:04:53.507Z,2.70
2022-08-11T12:05:53.496Z,2.40
2022-08-11T12:06:53.501Z,2.80
2022-08-11T12:08:04.958Z,2.60
2022-08-11T12:08:53.458Z,2.50
2022-08-11T12:09:53.467Z,2.70
2022-08-11T12:10:53.497Z,2.70
2022-08-11T12:11:53.465Z,2.70
2022-08-11T12:12:53.409Z,2.80
2022-08-11T12:13:53.451Z,2.70
2022-08-11T12:14:53.403Z,2.70
2022-08-11T12:16:31.092Z,2.70
2022-08-11T12:16:53.373Z,2.60
2022-08-11T12:17:53.352Z,2.90
2022-08-11T12:18:53.508Z,2.40
2022-08-11T12:19:53.349Z,2.30
2022-08-11T12:20:53.309Z,2.40
2022-08-11T12:21:53.305Z,2.20
2022-08-11T12:22:53.282Z,2.60
2022-08-11T12:23:53.271Z,2.50
2022-08-11T12:24:53.259Z,2.70
2022-08-11T12:26:16.279Z,2.60
2022-08-11T12:27:15.039Z,2.60
2022-08-11T12:27:53.228Z,2.50
2022-08-11T12:28:53.211Z,2.50
2022-08-11T12:29:55.558Z,2.70
2022-08-11T12:30:54.185Z,2.40
2022-08-11T12:31:53.178Z,2.50
2022-08-11T12:32:53.236Z,2.60
2022-08-11T12:33:53.177Z,2.60
2022-08-11T12:34:53.175Z,2.40
2022-08-11T12:36:00.778Z,2.70
2022-08-11T12:36:53.241Z,2.30
2022-08-11T12:37:57.304Z,2.80
2022-08-11T12:38:53.131Z,2.50
2022-08-11T12:40:15.743Z,2.80
2022-08-11T12:41:15.545Z,2.60
2022-08-11T12:41:53.204Z,2.50
2022-08-11T12:42:55.492Z,2.70
2022-08-11T12:43:57.013Z,2.60
2022-08-11T12:44:53.130Z,2.70
2022-08-11T12:45:53.099Z,2.70
2022-08-11T12:46:53.068Z,2.60
2022-08-11T12:48:57.201Z,2.80
2022-08-11T12:48:58.999Z,2.50
2022-08-11T12:49:52.951Z,2.70
2022-08-11T12:50:52.940Z,2.30
2022-08-11T12:52:13.614Z,2.60
2022-08-11T12:52:52.932Z,2.60
2022-08-11T12:53:52.905Z,2.70
2022-08-11T12:54:52.917Z,2.60
2022-08-11T12:56:03.669Z,2.80
2022-08-11T12:56:52.963Z,2.90
2022-08-11T12:57:52.930Z,2.40
2022-08-11T12:58:52.956Z,2.50
2022-08-11T12:59:52.914Z,2.70
2022-08-11T13:00:52.940Z,2.80
2022-08-11T13:01:52.803Z,2.60
2022-08-11T13:02:52.804Z,2.50
2022-08-11T13:03:56.706Z,2.80
2022-08-11T13:04:52.768Z,2.50
2022-08-11T13:05:52.755Z,2.90
2022-08-11T13:06:52.742Z,2.70
2022-08-11T13:07:52.927Z,2.60
2022-08-11T13:08:52.781Z,2.70
2022-08-11T13:09:52.706Z,2.70
2022-08-11T13:10:52.696Z,2.70
2022-08-11T13:11:55.629Z,2.70
2022-08-11T13:12:52.710Z,2.50
2022-08-11T13:13:57.549Z,2.60
2022-08-11T13:14:52.646Z,2.50
2022-08-11T13:15:52.643Z,2.70
2022-08-11T13:16:52.615Z,2.50
2022-08-11T13:17:52.642Z,2.60
2022-08-11T13:18:53.469Z,2.40
2022-08-11T13:19:52.590Z,2.60
2022-08-11T13:20:52.586Z,2.70
2022-08-11T13:21:52.556Z,2.50
2022-08-11T13:22:52.543Z,2.70
2022-08-11T13:23:59.430Z,2.60
2022-08-11T13:24:52.521Z,2.50